Time;durP1;ratioP1;P1;durP2;ratioP2;P2;SDS_P1;SDS_P2;PMS_P1;PMS_P2;Temp;Humidity;BMP_temperature;BMP_pressure;BME280_temperature;BME280_humidity;BME280_pressure;Samples;Min_cycle;Max_cycle;Signal;HPM_P1;HPM_P2
2022/09/23 00:01:17;;;;;;;11.13;9.27;;;;;;;8.68;100.00;101713.50;5034768;28;20318;-63
2022/09/23 00:03:44;;;;;;;10.40;8.68;;;;;;;8.68;100.00;101721.25;5022053;28;20112;-63
2022/09/23 00:06:13;;;;;;;11.18;9.25;;;;;;;8.66;100.00;101716.00;5027670;28;20021;-63
2022/09/23 00:08:39;;;;;;;12.48;9.05;;;;;;;8.65;100.00;101719.41;5027912;28;20032;-63
2022/09/23 00:11:07;;;;;;;11.45;8.40;;;;;;;8.62;100.00;101721.81;5027302;28;20017;-63
2022/09/23 00:13:33;;;;;;;9.70;8.63;;;;;;;8.58;100.00;101712.13;5026761;28;20013;-63
2022/09/23 00:16:07;;;;;;;10.07;9.07;;;;;;;8.57;100.00;101718.09;5026599;28;20032;-63
2022/09/23 00:18:33;;;;;;;11.52;9.13;;;;;;;8.55;100.00;101712.81;5026967;28;20192;-63
2022/09/23 00:21:04;;;;;;;10.55;9.38;;;;;;;8.53;100.00;101707.56;5026749;28;20025;-63
2022/09/23 00:23:30;;;;;;;12.35;10.50;;;;;;;8.53;100.00;101709.25;5027309;28;20120;-63
2022/09/23 00:25:59;;;;;;;10.75;9.70;;;;;;;8.52;100.00;101705.78;5027257;28;20436;-63
2022/09/23 00:28:25;;;;;;;10.18;9.18;;;;;;;8.52;100.00;101710.06;5027151;28;20013;-63
2022/09/23 00:30:50;;;;;;;10.48;9.48;;;;;;;8.51;100.00;101700.50;5027047;28;20017;-63
2022/09/23 00:33:15;;;;;;;10.88;9.88;;;;;;;8.50;100.00;101699.66;5027099;28;20032;-63
2022/09/23 00:35:41;;;;;;;11.20;10.13;;;;;;;8.51;100.00;101695.34;5026518;28;20030;-63
2022/09/23 00:38:06;;;;;;;10.63;9.10;;;;;;;8.49;100.00;101694.41;5037097;28;20051;-63
2022/09/23 00:40:31;;;;;;;11.50;9.98;;;;;;;8.48;100.00;101688.34;5027415;28;20021;-63
2022/09/23 00:42:57;;;;;;;10.50;9.45;;;;;;;8.48;100.00;101698.69;5034174;28;20564;-63
2022/09/23 00:45:22;;;;;;;10.85;9.75;;;;;;;8.47;100.00;101683.09;5026235;28;20508;-62
2022/09/23 00:48:00;;;;;;;11.02;10.02;;;;;;;8.48;100.00;101696.09;5026613;28;20057;-63
2022/09/23 00:50:40;;;;;;;12.98;9.35;;;;;;;8.47;100.00;101683.97;5026944;28;20406;-63
2022/09/23 00:53:11;;;;;;;10.60;9.63;;;;;;;8.46;100.00;101689.94;5025046;28;20028;-63
2022/09/23 00:55:44;;;;;;;10.73;9.73;;;;;;;8.44;100.00;101683.81;5026978;28;20381;-62
2022/09/23 00:58:14;;;;;;;9.65;8.75;;;;;;;8.45;100.00;101679.53;5021087;28;20022;-63
2022/09/23 01:00:41;;;;;;;11.23;9.80;;;;;;;8.47;100.00;101685.69;5026735;28;20029;-62
2022/09/23 01:03:06;;;;;;;11.73;10.63;;;;;;;8.46;100.00;101687.38;5026603;28;20021;-63
2022/09/23 01:05:32;;;;;;;10.77;9.88;;;;;;;8.47;100.00;101680.50;5026550;28;20021;-63
2022/09/23 01:08:01;;;;;;;11.57;10.38;;;;;;;8.49;100.00;101681.50;5023337;28;20033;-63
2022/09/23 01:10:35;;;;;;;10.80;9.10;;;;;;;8.49;100.00;101682.34;5026536;28;20393;-63
2022/09/23 01:13:08;;;;;;;10.68;9.68;;;;;;;8.50;100.00;101678.97;5025770;28;20260;-63
2022/09/23 01:15:41;;;;;;;11.00;9.90;;;;;;;8.51;100.00;101674.69;5026088;28;20025;-63
2022/09/23 01:18:12;;;;;;;10.82;9.73;;;;;;;8.55;100.00;101680.91;5025652;28;20534;-63
2022/09/23 01:20:46;;;;;;;11.48;10.07;;;;;;;8.57;100.00;101684.50;5036474;28;20035;-63
2022/09/23 01:23:49;;;;;;;10.52;9.40;;;;;;;8.58;100.00;101673.38;5027316;28;20100;-63
2022/09/23 01:26:32;;;;;;;11.02;10.02;;;;;;;8.58;100.00;101671.66;5025833;28;20036;-63
2022/09/23 01:29:22;;;;;;;10.25;9.20;;;;;;;8.60;100.00;101675.22;5024914;28;20040;-63
2022/09/23 01:32:01;;;;;;;11.80;9.90;;;;;;;8.62;100.00;101675.28;5025840;28;20030;-63
2022/09/23 01:34:37;;;;;;;11.13;10.07;;;;;;;8.62;100.00;101672.72;5026262;28;20498;-63
2022/09/23 01:37:12;;;;;;;10.18;9.27;;;;;;;8.62;100.00;101668.44;5039310;28;20457;-63
2022/09/23 01:39:43;;;;;;;10.55;9.45;;;;;;;8.58;100.00;101663.91;5026773;28;20044;-63
2022/09/23 01:42:22;;;;;;;11.13;9.68;;;;;;;8.55;100.00;101666.31;5026363;28;20120;-63
2022/09/23 01:44:53;;;;;;;10.50;9.60;;;;;;;8.51;100.00;101664.34;5026283;28;20079;-63
2022/09/23 01:47:29;;;;;;;11.05;10.00;;;;;;;8.46;100.00;101665.81;5027295;28;20056;-63
2022/09/23 01:52:56;;;;;;;14.35;9.57;;;;;;;8.40;100.00;101666.38;5013995;28;20149;-62
2022/09/23 01:55:27;;;;;;;11.02;10.02;;;;;;;8.40;100.00;101656.06;5026436;28;20057;-63
2022/09/23 01:58:08;;;;;;;11.07;9.77;;;;;;;8.40;100.00;101661.22;5027203;28;20021;-63
2022/09/23 02:00:39;;;;;;;10.93;9.70;;;;;;;8.40;100.00;101662.09;5026965;28;20087;-63
2022/09/23 02:03:14;;;;;;;10.35;9.45;;;;;;;8.40;100.00;101662.09;5026812;28;20032;-63
2022/09/23 02:05:47;;;;;;;12.85;10.75;;;;;;;8.43;100.00;101660.47;5026566;28;20022;-63
2022/09/23 02:08:47;;;;;;;11.23;10.00;;;;;;;8.43;100.00;101656.22;5026219;28;20120;-63
2022/09/23 02:11:14;;;;;;;10.60;9.48;;;;;;;8.45;100.00;101657.19;5012040;28;20501;-64
2022/09/23 02:14:00;;;;;;;11.43;9.82;;;;;;;8.46;100.00;101655.47;5027077;28;20107;-62
2022/09/23 02:16:30;;;;;;;10.63;9.73;;;;;;;8.46;100.00;101650.31;5026755;28;20079;-62
2022/09/23 02:19:05;;;;;;;10.73;9.75;;;;;;;8.46;100.00;101655.47;5026730;28;20377;-63
2022/09/23 02:21:46;;;;;;;12.30;10.18;;;;;;;8.45;100.00;101649.44;5026217;28;20036;-63
2022/09/23 02:24:19;;;;;;;10.77;9.82;;;;;;;8.45;100.00;101648.53;5027135;28;20061;-63
2022/09/23 02:27:02;;;;;;;11.45;10.35;;;;;;;8.44;100.00;101641.63;5030978;28;20224;-63
2022/09/23 02:30:03;;;;;;;11.48;10.38;;;;;;;8.43;100.00;101637.22;5029774;28;20036;-62
2022/09/23 02:32:35;;;;;;;10.43;9.43;;;;;;;8.41;100.00;101643.22;5006640;28;20042;-63
2022/09/23 02:35:31;;;;;;;11.45;10.35;;;;;;;8.39;100.00;101639.66;5029127;28;20054;-63
2022/09/23 02:38:09;;;;;;;11.00;9.90;;;;;;;8.38;100.00;101632.69;5023155;28;20505;-63
2022/09/23 02:40:51;;;;;;;11.25;10.10;;;;;;;8.38;100.00;101618.91;5012167;28;20099;-62
2022/09/23 02:43:32;;;;;;;10.88;9.88;;;;;;;8.37;100.00;101625.78;5029667;28;20061;-63
2022/09/23 02:45:58;;;;;;;11.48;10.48;;;;;;;8.35;100.00;101622.22;5029143;28;20091;-63
2022/09/23 02:48:30;;;;;;;11.75;10.35;;;;;;;8.32;100.00;101611.72;5029646;28;20531;-63
2022/09/23 02:50:56;;;;;;;13.18;10.43;;;;;;;8.29;100.00;101615.00;5029403;28;20087;-63
2022/09/23 02:53:23;;;;;;;10.82;9.82;;;;;;;8.27;100.00;101613.19;5029731;28;20537;-63
2022/09/23 02:55:49;;;;;;;12.27;11.07;;;;;;;8.24;100.00;101613.00;5029069;28;20092;-62
2022/09/23 02:58:15;;;;;;;10.85;9.73;;;;;;;8.22;100.00;101605.16;5029332;28;20026;-63
2022/09/23 03:01:07;;;;;;;11.38;10.20;;;;;;;8.21;100.00;101605.06;5029518;28;20047;-63
2022/09/23 03:03:48;;;;;;;11.50;10.25;;;;;;;8.18;100.00;101605.81;5029696;28;20027;-63
2022/09/23 03:06:38;;;;;;;11.00;9.73;;;;;;;8.16;100.00;101598.00;5029425;28;20116;-63
2022/09/23 03:09:11;;;;;;;10.65;9.65;;;;;;;8.15;100.00;101603.94;5029143;28;20151;-63
2022/09/23 03:11:42;;;;;;;12.55;9.65;;;;;;;8.13;100.00;101605.56;5029496;28;20033;-62
2022/09/23 03:14:28;;;;;;;10.30;9.38;;;;;;;8.12;100.00;101603.78;5028798;28;20033;-63
2022/09/23 03:17:18;;;;;;;12.27;10.43;;;;;;;8.12;100.00;101597.72;5028529;28;20052;-63
2022/09/23 03:20:29;;;;;;;11.07;9.90;;;;;;;8.09;100.00;101593.31;5029351;28;20013;-63
2022/09/23 03:22:59;;;;;;;10.80;9.70;;;;;;;8.10;100.00;101591.59;5013394;28;20052;-63
2022/09/23 03:25:30;;;;;;;11.05;9.95;;;;;;;8.08;100.00;101588.06;5028371;28;20087;-63
2022/09/23 03:27:57;;;;;;;10.05;9.02;;;;;;;8.06;100.00;101593.09;5028953;28;20044;-63
2022/09/23 03:30:25;;;;;;;10.32;9.30;;;;;;;8.03;100.00;101590.38;5028777;28;20029;-63
2022/09/23 03:32:51;;;;;;;10.25;9.35;;;;;;;8.03;100.00;101590.38;5015036;28;20022;-63
2022/09/23 03:35:17;;;;;;;12.45;11.27;;;;;;;7.99;100.00;101589.31;5028685;28;20037;-63
2022/09/23 03:37:52;;;;;;;11.27;10.15;;;;;;;7.98;100.00;101584.06;5028375;28;20080;-63
2022/09/23 03:40:31;;;;;;;13.45;10.05;;;;;;;7.96;100.00;101580.50;5028268;28;20029;-63
2022/09/23 03:43:00;;;;;;;10.48;9.50;;;;;;;7.95;100.00;101583.91;5028928;28;20053;-62
2022/09/23 03:45:31;;;;;;;14.20;10.68;;;;;;;7.93;100.00;101584.69;5028908;28;20378;-63
2022/09/23 03:47:56;;;;;;;11.25;10.15;;;;;;;7.91;100.00;101585.44;5029649;28;20036;-62
2022/09/23 03:50:22;;;;;;;10.35;9.43;;;;;;;7.89;100.00;101589.63;5011175;28;20025;-63
2022/09/23 03:52:49;;;;;;;11.90;8.70;;;;;;;7.88;100.00;101582.69;5028198;28;20472;-63
2022/09/23 03:55:16;;;;;;;10.32;9.38;;;;;;;7.82;100.00;101580.66;5028616;28;20100;-63
2022/09/23 03:57:41;;;;;;;10.38;9.48;;;;;;;7.80;100.00;101582.25;5027903;28;20029;-64
2022/09/23 04:00:07;;;;;;;10.50;9.40;;;;;;;7.75;100.00;101574.28;5027818;28;20044;-63
2022/09/23 04:02:33;;;;;;;9.90;8.98;;;;;;;7.71;100.00;101574.00;5027978;28;20147;-64
2022/09/23 04:04:58;;;;;;;10.20;9.20;;;;;;;7.66;100.00;101577.22;5028326;28;20108;-64
2022/09/23 04:07:24;;;;;;;11.15;10.05;;;;;;;7.62;100.00;101580.44;5028578;28;20037;-64
2022/09/23 04:09:50;;;;;;;10.10;9.10;;;;;;;7.59;100.00;101579.38;5028208;28;20421;-64
2022/09/23 04:12:15;;;;;;;10.48;9.45;;;;;;;7.55;100.00;101578.31;5028340;28;20056;-63
2022/09/23 04:14:41;;;;;;;10.05;9.13;;;;;;;7.49;100.00;101573.69;5009732;28;20473;-63
2022/09/23 04:17:07;;;;;;;10.68;9.65;;;;;;;7.45;100.00;101570.06;5028135;28;20532;-64
2022/09/23 04:19:32;;;;;;;10.25;9.25;;;;;;;7.44;100.00;101580.28;5027517;28;20036;-63
2022/09/23 04:21:58;;;;;;;10.27;9.27;;;;;;;7.43;100.00;101573.34;5028083;28;20022;-63
2022/09/23 04:24:23;;;;;;;9.85;9.05;;;;;;;7.41;100.00;101575.81;5027902;28;20025;-63
2022/09/23 04:26:51;;;;;;;10.90;9.77;;;;;;;7.40;100.00;101584.38;5028361;28;20021;-63
2022/09/23 04:29:16;;;;;;;11.10;9.25;;;;;;;7.39;100.00;101582.63;5027602;28;20036;-63
2022/09/23 04:31:42;;;;;;;9.93;9.02;;;;;;;7.36;100.00;101578.97;5028052;28;20377;-63
2022/09/23 04:34:08;;;;;;;10.60;9.63;;;;;;;7.32;100.00;101576.19;5027767;28;20389;-63
2022/09/23 04:36:33;;;;;;;11.05;9.95;;;;;;;7.28;100.00;101568.22;5027820;28;20033;-63
2022/09/23 04:39:00;;;;;;;10.50;9.50;;;;;;;7.27;100.00;101569.00;5027653;28;20029;-64
2022/09/23 04:41:25;;;;;;;10.20;9.27;;;;;;;7.23;100.00;101570.53;5027128;28;20155;-64
2022/09/23 04:43:51;;;;;;;10.50;9.52;;;;;;;7.26;100.00;101569.81;5027364;28;20061;-63
2022/09/23 04:46:16;;;;;;;10.43;9.38;;;;;;;7.25;100.00;101575.78;5027469;28;20037;-62
2022/09/23 04:48:42;;;;;;;9.77;8.88;;;;;;;7.28;100.00;101570.78;5027843;28;20025;-63
2022/09/23 04:51:12;;;;;;;10.93;9.93;;;;;;;7.24;100.00;101571.41;5026937;28;20025;-63
2022/09/23 04:53:40;;;;;;;10.88;9.77;;;;;;;7.24;100.00;101563.66;5027774;28;20087;-64
2022/09/23 04:56:08;;;;;;;10.18;9.18;;;;;;;7.25;100.00;101570.63;5027755;28;20045;-63
2022/09/23 04:58:34;;;;;;;10.15;8.98;;;;;;;7.26;100.00;101564.66;5009615;28;20048;-63
2022/09/23 05:01:08;;;;;;;10.90;9.40;;;;;;;7.23;100.00;101560.22;5027340;28;20029;-63
2022/09/23 05:03:34;;;;;;;9.85;8.85;;;;;;;7.22;100.00;101566.16;5027248;28;20100;-63
2022/09/23 05:05:59;;;;;;;11.10;9.90;;;;;;;7.22;100.00;101558.44;5026547;28;20021;-63
2022/09/23 05:08:25;;;;;;;9.98;8.98;;;;;;;7.20;100.00;101554.88;5027363;28;20044;-63
2022/09/23 05:10:56;;;;;;;10.52;9.63;;;;;;;7.20;100.00;101554.88;5026355;28;20064;-64
2022/09/23 05:13:21;;;;;;;10.90;9.57;;;;;;;7.18;100.00;101554.78;5025321;28;20212;-63
2022/09/23 05:15:46;;;;;;;10.48;9.48;;;;;;;7.18;100.00;101557.34;5026515;28;20461;-64
2022/09/23 05:18:11;;;;;;;10.98;9.88;;;;;;;7.19;100.00;101559.16;5025813;28;20240;-64
2022/09/23 05:20:37;;;;;;;12.70;10.50;;;;;;;7.19;100.00;101563.41;5026919;28;20033;-64
2022/09/23 05:23:02;;;;;;;11.63;10.50;;;;;;;7.19;100.00;101563.41;5025084;28;20096;-64
2022/09/23 05:25:28;;;;;;;10.95;9.85;;;;;;;7.18;100.00;101566.78;5025506;28;20037;-64
2022/09/23 05:27:53;;;;;;;11.20;10.20;;;;;;;7.17;100.00;101565.91;5025159;28;20261;-63
2022/09/23 05:30:18;;;;;;;12.05;10.95;;;;;;;7.17;100.00;101565.91;5025305;28;20049;-63
2022/09/23 05:32:44;;;;;;;11.23;10.13;;;;;;;7.19;100.00;101563.41;5024861;28;20028;-62
2022/09/23 05:35:10;;;;;;;12.80;11.32;;;;;;;7.20;100.00;101566.06;5031079;28;20394;-63
2022/09/23 05:37:36;;;;;;;11.27;10.27;;;;;;;7.21;100.00;101573.00;5035340;28;20029;-63
2022/09/23 05:40:02;;;;;;;10.90;9.80;;;;;;;7.26;100.00;101574.97;5026620;28;20022;-63
2022/09/23 05:42:27;;;;;;;11.10;10.00;;;;;;;7.27;100.00;101581.88;5024884;28;20094;-63
2022/09/23 05:44:53;;;;;;;10.57;9.57;;;;;;;7.29;100.00;101577.72;5026939;28;20032;-64
2022/09/23 05:47:18;;;;;;;10.80;9.73;;;;;;;7.32;100.00;101580.47;5026381;28;20025;-64
2022/09/23 05:49:43;;;;;;;10.80;9.80;;;;;;;7.34;100.00;101576.28;5034698;28;20321;-63
2022/09/23 05:52:10;;;;;;;10.07;9.05;;;;;;;7.37;100.00;101575.56;5025798;28;20041;-64
2022/09/23 05:54:35;;;;;;;10.85;9.75;;;;;;;7.37;100.00;101584.22;5025020;28;20100;-64
2022/09/23 05:57:00;;;;;;;10.23;9.23;;;;;;;7.39;100.00;101572.31;5027309;28;20021;-63
2022/09/23 05:59:25;;;;;;;10.65;9.55;;;;;;;7.42;100.00;101569.00;5026576;28;20480;-64
2022/09/23 06:01:51;;;;;;;9.82;8.73;;;;;;;7.44;100.00;101583.75;5029317;28;20021;-63
2022/09/23 06:04:17;;;;;;;10.30;8.50;;;;;;;7.49;100.00;101583.13;5028032;28;20045;-63
2022/09/23 06:06:42;;;;;;;10.73;9.73;;;;;;;7.52;100.00;101583.31;5029182;28;20025;-63
2022/09/23 06:09:12;;;;;;;9.93;8.93;;;;;;;7.56;100.00;101580.06;5027693;28;20036;-64
2022/09/23 06:11:37;;;;;;;9.30;8.40;;;;;;;7.59;100.00;101585.41;5039383;28;20030;-63
2022/09/23 06:14:03;;;;;;;10.10;9.05;;;;;;;7.63;100.00;101579.63;5027941;28;20481;-63
2022/09/23 06:16:31;;;;;;;10.45;9.00;;;;;;;7.67;100.00;101568.69;5029356;28;20026;-63
2022/09/23 06:18:59;;;;;;;9.32;8.50;;;;;;;7.71;100.00;101564.59;5029793;28;20029;-63
2022/09/23 06:21:24;;;;;;;10.68;9.00;;;;;;;7.76;100.00;101577.72;5029250;28;20312;-63
2022/09/23 06:23:49;;;;;;;12.52;8.52;;;;;;;7.78;100.00;101568.38;5029503;28;20402;-63
2022/09/23 06:26:15;;;;;;;10.00;8.60;;;;;;;7.82;100.00;101567.75;5029322;28;20380;-63
2022/09/23 06:28:42;;;;;;;11.32;8.77;;;;;;;7.87;100.00;101570.56;5029394;28;20033;-63
2022/09/23 06:31:12;;;;;;;9.95;8.95;;;;;;;7.91;100.00;101570.84;5029056;28;20033;-63
2022/09/23 06:33:38;;;;;;;10.40;8.95;;;;;;;7.96;100.00;101565.03;5029918;28;20063;-63
2022/09/23 06:36:05;;;;;;;10.82;9.73;;;;;;;8.00;100.00;101564.41;5030047;28;20466;-63
2022/09/23 06:38:33;;;;;;;9.13;8.25;;;;;;;8.05;100.00;101560.38;5028702;28;20120;-63
2022/09/23 06:40:59;;;;;;;9.85;8.88;;;;;;;8.11;100.00;101560.69;5028955;28;20025;-63
2022/09/23 06:43:25;;;;;;;9.45;8.40;;;;;;;8.16;100.00;101564.44;5029672;28;20060;-63
2022/09/23 06:45:54;;;;;;;9.95;8.90;;;;;;;8.22;100.00;101568.16;5029631;28;20414;-64
2022/09/23 06:48:20;;;;;;;9.27;8.27;;;;;;;8.27;100.00;101561.53;5029570;28;20041;-63
2022/09/23 06:50:48;;;;;;;8.93;8.13;;;;;;;8.34;100.00;101568.78;5029715;28;20018;-64
2022/09/23 06:53:13;;;;;;;10.18;8.68;;;;;;;8.41;100.00;101563.16;5028613;28;20092;-63
2022/09/23 06:55:40;;;;;;;9.40;8.40;;;;;;;8.47;100.00;101565.13;5029225;28;20037;-63
2022/09/23 06:58:06;;;;;;;8.82;7.93;;;;;;;8.54;100.00;101568.94;5029455;28;20535;-63
2022/09/23 07:00:31;;;;;;;9.50;8.63;;;;;;;8.59;100.00;101567.53;5029163;28;20036;-63
2022/09/23 07:02:56;;;;;;;9.63;8.65;;;;;;;8.66;100.00;101566.13;5029339;28;20021;-63
2022/09/23 07:05:21;;;;;;;11.43;8.55;;;;;;;8.72;100.00;101569.06;5029019;28;20029;-64
2022/09/23 07:07:47;;;;;;;11.75;8.15;;;;;;;8.79;100.00;101562.50;5028686;28;20428;-64
2022/09/23 07:10:13;;;;;;;10.63;7.85;;;;;;;8.87;100.00;101561.19;5028599;28;20036;-64
2022/09/23 07:12:38;;;;;;;8.57;7.78;;;;;;;8.94;100.00;101567.53;5028143;28;20057;-63
2022/09/23 07:15:04;;;;;;;11.45;8.32;;;;;;;9.01;100.00;101571.34;5028607;28;20028;-64
2022/09/23 07:17:29;;;;;;;8.82;7.22;;;;;;;9.07;100.00;101565.56;5029023;28;20067;-64
2022/09/23 07:19:56;;;;;;;8.95;7.88;;;;;;;9.15;100.00;101565.97;5029059;28;20497;-64
2022/09/23 07:22:23;;;;;;;8.75;7.50;;;;;;;9.22;100.00;101562.88;5028338;28;20042;-64
2022/09/23 07:24:49;;;;;;;8.65;7.07;;;;;;;9.31;100.00;101563.31;5029182;28;20029;-63
2022/09/23 07:27:18;;;;;;;8.32;6.90;;;;;;;9.40;100.00;101567.16;5029172;28;20346;-64
2022/09/23 07:29:47;;;;;;;9.90;7.63;;;;;;;9.51;100.00;101558.22;5029204;28;20025;-63
2022/09/23 07:32:12;;;;;;;8.38;6.60;;;;;;;9.61;100.00;101563.03;5027877;28;20606;-64
2022/09/23 07:34:38;;;;;;;11.35;7.05;;;;;;;9.71;100.00;101555.69;5028117;28;20072;-64
2022/09/23 07:37:03;;;;;;;7.60;6.88;;;;;;;9.86;100.00;101558.09;5027953;28;20026;-64
2022/09/23 07:39:29;;;;;;;7.20;6.50;;;;;;;9.98;100.00;101562.97;5028892;28;20040;-64
2022/09/23 07:41:54;;;;;;;10.70;6.72;;;;;;;10.05;100.00;101554.69;5028747;28;20374;-64
2022/09/23 07:44:20;;;;;;;8.07;5.93;;;;;;;10.13;100.00;101556.72;5028331;28;20039;-64
2022/09/23 07:46:48;;;;;;;6.78;5.38;;;;;;;10.23;100.00;101558.91;5029116;28;20028;-64
2022/09/23 07:49:13;;;;;;;8.98;6.15;;;;;;;10.32;100.00;101563.63;5028365;28;20033;-63
2022/09/23 07:51:40;;;;;;;6.78;5.72;;;;;;;10.41;100.00;101558.84;5027608;28;20037;-64
2022/09/23 07:54:10;;;;;;;9.38;5.93;;;;;;;10.56;100.00;101558.66;5027959;28;20381;-64
2022/09/23 07:56:36;;;;;;;7.82;6.28;;;;;;;10.71;100.00;101560.13;5010419;28;20021;-64
2022/09/23 07:59:04;;;;;;;7.88;5.55;;;;;;;10.91;100.00;101560.09;5027388;28;20481;-64
2022/09/23 08:01:38;;;;;;;7.78;6.43;;;;;;;11.11;100.00;101560.06;5027833;28;20026;-63
2022/09/23 08:04:11;;;;;;;8.75;5.60;;;;;;;11.24;100.00;101564.03;5024787;28;20022;-64
2022/09/23 08:06:45;;;;;;;9.82;6.05;;;;;;;11.38;100.00;101559.41;5015270;28;20171;-64
2022/09/23 08:09:12;;;;;;;7.00;5.75;;;;;;;11.51;100.00;101556.47;5026691;28;20037;-64
2022/09/23 08:11:40;;;;;;;7.53;6.47;;;;;;;11.63;100.00;101561.28;5026488;28;20044;-64
2022/09/23 08:14:07;;;;;;;5.43;4.93;;;;;;;11.73;100.00;101559.91;5026645;28;20389;-63
2022/09/23 08:16:33;;;;;;;11.45;5.95;;;;;;;11.84;100.00;101568.13;5024773;28;20028;-64
2022/09/23 08:18:58;;;;;;;6.60;5.60;;;;;;;11.95;100.00;101558.13;5027191;28;20028;-65
2022/09/23 08:21:24;;;;;;;7.80;5.47;;;;;;;12.03;100.00;101571.44;5027558;28;20025;-64
2022/09/23 08:23:50;;;;;;;6.55;5.25;;;;;;;12.10;100.00;101569.97;5028566;28;20040;-63
2022/09/23 08:26:15;;;;;;;6.55;5.70;;;;;;;12.16;100.00;101569.31;5023837;28;20496;-63
2022/09/23 08:28:43;;;;;;;6.15;5.32;;;;;;;12.20;100.00;101572.06;5027310;28;20029;-64
2022/09/23 08:31:08;;;;;;;7.28;5.53;;;;;;;12.27;100.00;101567.97;5026921;28;20026;-64
2022/09/23 08:33:33;;;;;;;8.38;6.60;;;;;;;12.37;100.00;101571.81;5027369;28;20044;-64
2022/09/23 08:36:00;;;;;;;5.53;4.93;;;;;;;12.44;100.00;101568.59;5026762;28;20079;-64
2022/09/23 08:38:26;;;;;;;9.48;5.20;;;;;;;12.52;98.06;101573.19;5027073;28;20355;-64
2022/09/23 08:41:03;;;;;;;7.30;5.82;;;;;;;12.52;95.36;101571.47;5026627;28;20075;-64
2022/09/23 08:43:31;;;;;;;7.80;5.25;;;;;;;12.60;97.33;101566.53;5027612;28;20045;-63
2022/09/23 08:46:01;;;;;;;8.82;4.80;;;;;;;12.67;99.24;101565.94;5027042;28;20391;-64
2022/09/23 08:48:33;;;;;;;14.27;5.18;;;;;;;12.72;94.97;101572.19;5027566;28;20112;-64
2022/09/23 08:51:06;;;;;;;6.18;4.80;;;;;;;12.77;93.45;101571.47;5027229;28;20029;-64
2022/09/23 08:53:36;;;;;;;10.70;5.65;;;;;;;12.87;94.02;101570.03;5028038;28;20148;-64
2022/09/23 08:56:09;;;;;;;8.50;5.45;;;;;;;12.96;96.51;101573.84;5027313;28;20017;-64
2022/09/23 08:59:02;;;;;;;7.65;5.00;;;;;;;13.08;93.62;101554.28;5027009;28;20033;-64
2022/09/23 09:01:44;;;;;;;6.68;4.68;;;;;;;13.20;94.43;101567.69;5027094;28;20051;-64
2022/09/23 09:04:36;;;;;;;7.68;4.90;;;;;;;13.28;94.45;101559.25;5026672;28;20098;-64
2022/09/23 09:07:08;;;;;;;6.65;5.20;;;;;;;13.33;91.42;101558.56;5007681;28;20167;-64
2022/09/23 09:09:44;;;;;;;7.50;4.93;;;;;;;13.42;92.28;101562.31;5025573;28;20037;-64
2022/09/23 09:12:42;;;;;;;8.57;4.85;;;;;;;13.52;91.58;101556.59;5026961;28;20091;-64
2022/09/23 09:15:11;;;;;;;7.28;4.63;;;;;;;13.66;93.56;101558.72;5016359;28;20133;-64
2022/09/23 09:17:50;;;;;;;8.93;4.75;;;;;;;13.75;89.49;101553.81;5026106;28;20033;-63
2022/09/23 09:20:38;;;;;;;5.40;4.60;;;;;;;13.83;87.67;101551.44;5026971;28;20056;-64
2022/09/23 09:23:11;;;;;;;6.78;4.60;;;;;;;13.92;86.91;101549.09;5014120;28;20029;-64
2022/09/23 09:25:45;;;;;;;7.93;4.65;;;;;;;14.02;85.51;101551.97;5027213;28;20036;-64
2022/09/23 09:28:18;;;;;;;7.93;5.07;;;;;;;14.11;86.23;101554.84;5027330;28;20032;-63
2022/09/23 09:30:47;;;;;;;9.50;4.55;;;;;;;14.17;86.46;101552.38;5026938;28;20396;-64
2022/09/23 09:33:16;;;;;;;8.27;4.53;;;;;;;14.25;85.39;101549.13;5026321;28;20025;-63
2022/09/23 09:35:44;;;;;;;6.90;4.00;;;;;;;14.33;85.49;101546.75;5030455;28;20112;-63
2022/09/23 09:38:09;;;;;;;7.13;3.95;;;;;;;14.38;87.51;101538.22;5030363;28;20037;-63
2022/09/23 09:40:43;;;;;;;6.38;3.95;;;;;;;14.45;86.20;101546.19;5029348;28;20025;-64
2022/09/23 09:43:09;;;;;;;6.15;3.92;;;;;;;14.49;81.81;101528.06;5029380;28;20432;-63
2022/09/23 09:45:58;;;;;;;5.78;3.60;;;;;;;14.60;83.28;101537.91;5029346;28;20029;-64
2022/09/23 09:48:36;;;;;;;4.65;3.58;;;;;;;14.64;79.67;101532.78;5029043;28;20029;-64
2022/09/23 09:51:20;;;;;;;5.50;4.20;;;;;;;14.65;75.89;101534.59;5029364;28;20020;-64
2022/09/23 09:53:46;;;;;;;5.95;3.58;;;;;;;14.75;78.51;101532.22;5029229;28;20486;-63
2022/09/23 09:56:15;;;;;;;4.57;3.30;;;;;;;14.85;79.55;101531.63;5030316;28;20200;-63
2022/09/23 09:58:53;;;;;;;7.15;3.47;;;;;;;14.88;74.66;101531.69;5030406;28;20457;-63
2022/09/23 10:01:22;;;;;;;6.55;3.35;;;;;;;15.02;76.46;101527.69;5030667;28;20036;-63
2022/09/23 10:03:49;;;;;;;5.28;2.90;;;;;;;15.09;76.81;101530.47;5030279;28;20067;-63
2022/09/23 10:06:23;;;;;;;6.70;3.08;;;;;;;15.10;73.16;101534.84;5029998;28;20034;-64
2022/09/23 10:09:11;;;;;;;3.30;2.75;;;;;;;15.19;74.01;101526.34;5030009;28;20393;-64
2022/09/23 10:11:37;;;;;;;5.72;3.00;;;;;;;15.25;75.51;101530.84;5030853;28;20539;-63
2022/09/23 10:14:04;;;;;;;6.15;3.05;;;;;;;15.32;77.64;101524.91;5030267;28;20025;-63
2022/09/23 10:16:32;;;;;;;4.10;2.95;;;;;;;15.38;76.62;101518.06;5030660;28;20056;-63
2022/09/23 10:19:16;;;;;;;3.10;2.80;;;;;;;15.44;77.57;101518.19;5029969;28;20033;-63
2022/09/23 10:21:42;;;;;;;6.43;3.30;;;;;;;15.44;73.41;101515.59;5030592;28;20029;-64
2022/09/23 10:24:17;;;;;;;4.22;2.80;;;;;;;15.45;73.25;101519.97;5030619;28;20040;-64
2022/09/23 10:27:06;;;;;;;4.80;2.63;;;;;;;15.48;71.04;101513.09;5030328;28;20022;-63
2022/09/23 10:29:47;;;;;;;4.10;2.03;;;;;;;15.59;72.22;101515.94;5030159;28;20389;-63
2022/09/23 10:32:32;;;;;;;5.28;2.72;;;;;;;15.70;75.14;101510.06;5029536;28;20108;-63
2022/09/23 10:35:12;;;;;;;5.88;2.92;;;;;;;15.77;75.17;101514.56;5030256;28;20049;-64
2022/09/23 10:37:45;;;;;;;6.20;2.50;;;;;;;15.78;71.68;101513.72;5030142;28;20527;-64
2022/09/23 10:49:31;;;;;;;7.78;2.95;;;;;;;15.84;71.98;101520.81;5029514;28;20117;-63
2022/09/23 10:52:18;;;;;;;5.93;2.50;;;;;;;15.85;72.30;101518.22;5027849;28;20033;-64
2022/09/23 10:54:43;;;;;;;3.20;2.22;;;;;;;15.90;73.40;101509.59;5021230;28;20045;-64
2022/09/23 10:57:40;;;;;;;4.05;2.55;;;;;;;15.91;71.73;101513.97;5029493;28;20044;-64
2022/09/23 11:00:17;;;;;;;3.63;2.58;;;;;;;15.94;70.80;101511.41;5030095;28;20472;-64
2022/09/23 11:03:08;;;;;;;3.20;2.35;;;;;;;15.96;71.49;101509.72;5029149;28;20409;-64
2022/09/23 11:05:55;;;;;;;6.50;2.75;;;;;;;15.96;70.11;101504.47;5029534;28;20037;-64
2022/09/23 11:08:55;;;;;;;3.28;2.97;;;;;;;15.93;69.03;101505.31;5029208;28;20104;-64
2022/09/23 11:11:34;;;;;;;4.15;2.50;;;;;;;15.96;69.01;101510.59;5029530;28;20277;-64
2022/09/23 11:14:27;;;;;;;5.95;2.83;;;;;;;15.97;69.44;101511.50;5029330;28;20273;-64
2022/09/23 11:17:13;;;;;;;4.55;2.55;;;;;;;16.01;69.95;101512.47;5029223;28;20435;-63
2022/09/23 11:20:02;;;;;;;4.63;2.50;;;;;;;16.04;70.29;101505.56;5028535;28;20027;-65
2022/09/23 11:22:46;;;;;;;4.65;2.70;;;;;;;16.11;70.79;101492.59;5029034;28;20030;-65
2022/09/23 11:25:21;;;;;;;2.78;2.35;;;;;;;16.18;68.64;101491.88;5028991;28;20079;-65
2022/09/23 11:28:16;;;;;;;4.75;2.00;;;;;;;16.23;68.52;101494.56;5029275;28;20120;-65
2022/09/23 11:31:00;;;;;;;3.63;2.30;;;;;;;16.30;67.07;101493.84;5028704;28;20140;-65
2022/09/23 11:33:40;;;;;;;2.63;2.00;;;;;;;16.38;68.60;101494.88;5026788;28;20083;-65
2022/09/23 11:36:55;;;;;;;3.65;2.28;;;;;;;16.46;69.77;101492.38;5025870;28;20032;-65
2022/09/23 11:39:29;;;;;;;3.03;2.20;;;;;;;16.49;69.49;101488.94;5016045;28;20412;-65
2022/09/23 11:41:58;;;;;;;2.33;2.03;;;;;;;16.57;70.65;101487.34;5028439;28;20029;-65
2022/09/23 11:44:34;;;;;;;4.80;2.50;;;;;;;16.61;70.81;101483.03;5028641;28;20381;-65
2022/09/23 11:47:07;;;;;;;4.85;2.58;;;;;;;16.62;70.19;101474.34;5028992;28;20032;-65
2022/09/23 11:49:39;;;;;;;3.72;2.28;;;;;;;16.62;67.76;101476.97;5028272;28;20029;-65
2022/09/23 11:52:07;;;;;;;4.65;2.55;;;;;;;16.62;66.56;101471.75;5028159;28;20512;-65